sensor_id;sensor_type;location;lat;lon;timestamp;P1;durP1;ratioP1;P2;durP2;ratioP2
43680;SDS011;29281;50.356;30.894;2022-09-03T00:00:51;10.63;;;5.68;;
43680;SDS011;29281;50.356;30.894;2022-09-03T00:02:08;10.23;;;5.54;;
43680;SDS011;29281;50.356;30.894;2022-09-03T00:03:17;9.09;;;5.63;;
43680;SDS011;29281;50.356;30.894;2022-09-03T00:04:31;9.53;;;5.64;;
43680;SDS011;29281;50.356;30.894;2022-09-03T00:05:42;9.58;;;5.57;;
43680;SDS011;29281;50.356;30.894;2022-09-03T00:06:54;9.58;;;5.41;;
43680;SDS011;29281;50.356;30.894;2022-09-03T00:09:27;8.34;;;5.35;;
43680;SDS011;29281;50.356;30.894;2022-09-03T00:12:15;12.44;;;6.13;;
43680;SDS011;29281;50.356;30.894;2022-09-03T00:14:25;10.27;;;5.47;;
43680;SDS011;29281;50.356;30.894;2022-09-03T00:15:31;10.47;;;5.29;;
43680;SDS011;29281;50.356;30.894;2022-09-03T00:16:48;10.31;;;5.69;;
43680;SDS011;29281;50.356;30.894;2022-09-03T00:18:07;9.49;;;5.57;;
43680;SDS011;29281;50.356;30.894;2022-09-03T00:19:15;8.87;;;5.51;;
43680;SDS011;29281;50.356;30.894;2022-09-03T00:20:27;9.59;;;5.54;;
43680;SDS011;29281;50.356;30.894;2022-09-03T00:21:39;9.89;;;5.34;;
43680;SDS011;29281;50.356;30.894;2022-09-03T00:22:53;9.53;;;5.11;;
43680;SDS011;29281;50.356;30.894;2022-09-03T00:23:59;10.40;;;5.91;;
43680;SDS011;29281;50.356;30.894;2022-09-03T00:25:06;9.18;;;5.29;;
43680;SDS011;29281;50.356;30.894;2022-09-03T00:26:16;8.52;;;5.18;;
43680;SDS011;29281;50.356;30.894;2022-09-03T00:27:24;8.71;;;5.28;;
43680;SDS011;29281;50.356;30.894;2022-09-03T00:28:41;9.46;;;5.68;;
43680;SDS011;29281;50.356;30.894;2022-09-03T00:30:07;8.80;;;5.34;;
43680;SDS011;29281;50.356;30.894;2022-09-03T00:31:08;11.04;;;5.83;;
43680;SDS011;29281;50.356;30.894;2022-09-03T00:32:19;8.02;;;4.95;;
43680;SDS011;29281;50.356;30.894;2022-09-03T00:33:25;8.32;;;5.39;;
43680;SDS011;29281;50.356;30.894;2022-09-03T00:34:33;9.32;;;5.56;;
43680;SDS011;29281;50.356;30.894;2022-09-03T00:35:47;9.59;;;5.12;;
43680;SDS011;29281;50.356;30.894;2022-09-03T00:36:50;8.08;;;5.36;;
43680;SDS011;29281;50.356;30.894;2022-09-03T00:37:53;9.22;;;5.26;;
43680;SDS011;29281;50.356;30.894;2022-09-03T00:38:57;8.98;;;5.49;;
43680;SDS011;29281;50.356;30.894;2022-09-03T00:40:03;9.12;;;5.48;;
43680;SDS011;29281;50.356;30.894;2022-09-03T00:41:19;9.28;;;5.24;;
43680;SDS011;29281;50.356;30.894;2022-09-03T00:42:42;8.96;;;5.57;;
43680;SDS011;29281;50.356;30.894;2022-09-03T00:43:59;8.88;;;5.19;;
43680;SDS011;29281;50.356;30.894;2022-09-03T00:49:12;9.27;;;5.26;;
43680;SDS011;29281;50.356;30.894;2022-09-03T00:51:58;9.06;;;5.67;;
43680;SDS011;29281;50.356;30.894;2022-09-03T00:55:51;9.73;;;5.33;;
43680;SDS011;29281;50.356;30.894;2022-09-03T00:57:05;11.23;;;5.51;;
43680;SDS011;29281;50.356;30.894;2022-09-03T00:59:26;7.81;;;5.49;;
43680;SDS011;29281;50.356;30.894;2022-09-03T01:00:41;10.59;;;5.86;;
43680;SDS011;29281;50.356;30.894;2022-09-03T01:01:50;8.93;;;5.57;;
43680;SDS011;29281;50.356;30.894;2022-09-03T01:03:11;10.66;;;5.78;;
43680;SDS011;29281;50.356;30.894;2022-09-03T01:04:28;10.28;;;5.70;;
43680;SDS011;29281;50.356;30.894;2022-09-03T01:08:36;11.12;;;5.17;;
43680;SDS011;29281;50.356;30.894;2022-09-03T01:11:32;9.17;;;5.47;;
43680;SDS011;29281;50.356;30.894;2022-09-03T01:12:58;8.63;;;5.33;;
43680;SDS011;29281;50.356;30.894;2022-09-03T01:14:07;10.81;;;5.21;;
43680;SDS011;29281;50.356;30.894;2022-09-03T01:15:21;9.25;;;5.78;;
43680;SDS011;29281;50.356;30.894;2022-09-03T01:16:35;11.87;;;5.81;;
43680;SDS011;29281;50.356;30.894;2022-09-03T01:24:47;10.42;;;5.28;;
43680;SDS011;29281;50.356;30.894;2022-09-03T01:30:37;8.83;;;5.08;;
43680;SDS011;29281;50.356;30.894;2022-09-03T01:31:49;9.26;;;5.13;;
43680;SDS011;29281;50.356;30.894;2022-09-03T01:33:17;10.57;;;5.41;;
43680;SDS011;29281;50.356;30.894;2022-09-03T01:38:52;7.88;;;5.87;;
43680;SDS011;29281;50.356;30.894;2022-09-03T01:43:41;7.38;;;4.73;;
43680;SDS011;29281;50.356;30.894;2022-09-03T02:11:40;8.26;;;4.88;;
43680;SDS011;29281;50.356;30.894;2022-09-03T02:12:48;9.53;;;4.91;;
43680;SDS011;29281;50.356;30.894;2022-09-03T02:13:58;10.03;;;5.08;;
43680;SDS011;29281;50.356;30.894;2022-09-03T02:15:09;7.63;;;5.03;;
43680;SDS011;29281;50.356;30.894;2022-09-03T02:16:20;8.20;;;5.17;;
43680;SDS011;29281;50.356;30.894;2022-09-03T02:17:24;10.48;;;5.26;;
43680;SDS011;29281;50.356;30.894;2022-09-03T02:18:29;8.25;;;5.04;;
43680;SDS011;29281;50.356;30.894;2022-09-03T02:19:35;8.79;;;5.07;;
43680;SDS011;29281;50.356;30.894;2022-09-03T02:20:42;8.29;;;4.91;;
43680;SDS011;29281;50.356;30.894;2022-09-03T02:21:50;9.47;;;5.12;;
43680;SDS011;29281;50.356;30.894;2022-09-03T02:22:58;10.91;;;5.37;;
43680;SDS011;29281;50.356;30.894;2022-09-03T02:24:02;9.17;;;5.13;;
43680;SDS011;29281;50.356;30.894;2022-09-03T02:25:06;11.03;;;5.14;;
43680;SDS011;29281;50.356;30.894;2022-09-03T02:26:15;9.96;;;4.85;;
43680;SDS011;29281;50.356;30.894;2022-09-03T02:27:20;6.87;;;5.07;;
43680;SDS011;29281;50.356;30.894;2022-09-03T02:28:24;8.69;;;5.39;;
43680;SDS011;29281;50.356;30.894;2022-09-03T02:29:29;9.42;;;4.68;;
43680;SDS011;29281;50.356;30.894;2022-09-03T02:30:35;10.27;;;5.14;;
43680;SDS011;29281;50.356;30.894;2022-09-03T02:31:40;9.73;;;5.25;;
43680;SDS011;29281;50.356;30.894;2022-09-03T02:32:44;9.36;;;5.18;;
43680;SDS011;29281;50.356;30.894;2022-09-03T02:33:49;10.07;;;5.17;;
43680;SDS011;29281;50.356;30.894;2022-09-03T02:34:53;7.71;;;5.21;;
43680;SDS011;29281;50.356;30.894;2022-09-03T02:35:57;8.66;;;5.21;;
43680;SDS011;29281;50.356;30.894;2022-09-03T02:37:10;9.58;;;5.21;;
43680;SDS011;29281;50.356;30.894;2022-09-03T02:38:15;8.24;;;5.02;;
43680;SDS011;29281;50.356;30.894;2022-09-03T02:39:18;9.48;;;5.12;;
43680;SDS011;29281;50.356;30.894;2022-09-03T02:40:24;8.98;;;5.36;;
43680;SDS011;29281;50.356;30.894;2022-09-03T02:41:28;8.05;;;4.91;;
43680;SDS011;29281;50.356;30.894;2022-09-03T02:42:33;7.44;;;4.81;;
43680;SDS011;29281;50.356;30.894;2022-09-03T02:44:25;7.75;;;5.09;;
43680;SDS011;29281;50.356;30.894;2022-09-03T02:45:09;8.57;;;5.01;;
43680;SDS011;29281;50.356;30.894;2022-09-03T02:46:13;8.02;;;4.82;;
43680;SDS011;29281;50.356;30.894;2022-09-03T02:47:19;7.98;;;4.99;;
43680;SDS011;29281;50.356;30.894;2022-09-03T02:48:25;8.91;;;4.72;;
43680;SDS011;29281;50.356;30.894;2022-09-03T02:49:29;7.39;;;5.10;;
43680;SDS011;29281;50.356;30.894;2022-09-03T02:50:42;9.57;;;5.57;;
43680;SDS011;29281;50.356;30.894;2022-09-03T02:51:46;8.72;;;5.08;;
43680;SDS011;29281;50.356;30.894;2022-09-03T02:52:50;11.09;;;5.68;;
43680;SDS011;29281;50.356;30.894;2022-09-03T02:53:57;8.99;;;4.96;;
43680;SDS011;29281;50.356;30.894;2022-09-03T02:55:01;9.22;;;4.96;;
43680;SDS011;29281;50.356;30.894;2022-09-03T02:56:04;8.64;;;5.34;;
43680;SDS011;29281;50.356;30.894;2022-09-03T02:57:14;7.75;;;5.16;;
43680;SDS011;29281;50.356;30.894;2022-09-03T02:58:21;9.98;;;4.60;;
43680;SDS011;29281;50.356;30.894;2022-09-03T02:59:25;8.38;;;5.27;;
43680;SDS011;29281;50.356;30.894;2022-09-03T03:00:31;9.14;;;5.04;;
43680;SDS011;29281;50.356;30.894;2022-09-03T03:01:36;9.07;;;5.13;;
43680;SDS011;29281;50.356;30.894;2022-09-03T03:02:42;10.66;;;5.42;;
43680;SDS011;29281;50.356;30.894;2022-09-03T03:03:45;9.26;;;5.17;;
43680;SDS011;29281;50.356;30.894;2022-09-03T03:04:48;9.04;;;5.00;;
43680;SDS011;29281;50.356;30.894;2022-09-03T03:05:55;8.59;;;4.77;;
43680;SDS011;29281;50.356;30.894;2022-09-03T03:07:02;10.28;;;4.98;;
43680;SDS011;29281;50.356;30.894;2022-09-03T03:08:05;8.53;;;4.99;;
43680;SDS011;29281;50.356;30.894;2022-09-03T03:09:11;9.84;;;5.20;;
43680;SDS011;29281;50.356;30.894;2022-09-03T03:10:19;11.31;;;5.10;;
43680;SDS011;29281;50.356;30.894;2022-09-03T03:11:26;8.38;;;5.24;;
43680;SDS011;29281;50.356;30.894;2022-09-03T03:12:30;9.68;;;5.19;;
43680;SDS011;29281;50.356;30.894;2022-09-03T03:13:35;8.95;;;5.27;;
43680;SDS011;29281;50.356;30.894;2022-09-03T03:14:40;9.46;;;5.01;;
43680;SDS011;29281;50.356;30.894;2022-09-03T03:15:43;10.24;;;5.70;;
43680;SDS011;29281;50.356;30.894;2022-09-03T03:16:53;10.02;;;5.14;;
43680;SDS011;29281;50.356;30.894;2022-09-03T03:17:57;9.07;;;5.45;;
43680;SDS011;29281;50.356;30.894;2022-09-03T03:19:01;10.56;;;4.79;;
43680;SDS011;29281;50.356;30.894;2022-09-03T03:20:06;9.46;;;5.25;;
43680;SDS011;29281;50.356;30.894;2022-09-03T03:21:11;10.96;;;5.25;;
43680;SDS011;29281;50.356;30.894;2022-09-03T03:22:17;13.46;;;5.78;;
43680;SDS011;29281;50.356;30.894;2022-09-03T03:23:23;7.71;;;5.16;;
43680;SDS011;29281;50.356;30.894;2022-09-03T03:24:27;8.24;;;4.91;;
43680;SDS011;29281;50.356;30.894;2022-09-03T03:25:36;7.97;;;5.36;;
43680;SDS011;29281;50.356;30.894;2022-09-03T03:26:38;8.90;;;5.38;;
43680;SDS011;29281;50.356;30.894;2022-09-03T03:27:42;9.02;;;5.27;;
43680;SDS011;29281;50.356;30.894;2022-09-03T03:28:47;9.24;;;5.42;;
43680;SDS011;29281;50.356;30.894;2022-09-03T03:29:52;9.32;;;5.34;;
43680;SDS011;29281;50.356;30.894;2022-09-03T03:31:19;10.04;;;5.19;;
43680;SDS011;29281;50.356;30.894;2022-09-03T03:32:11;9.11;;;5.46;;
43680;SDS011;29281;50.356;30.894;2022-09-03T03:33:15;9.74;;;5.25;;
43680;SDS011;29281;50.356;30.894;2022-09-03T03:34:18;10.10;;;5.88;;
43680;SDS011;29281;50.356;30.894;2022-09-03T03:35:26;10.82;;;5.47;;
43680;SDS011;29281;50.356;30.894;2022-09-03T03:36:31;8.61;;;5.44;;
43680;SDS011;29281;50.356;30.894;2022-09-03T03:37:36;7.60;;;5.14;;
43680;SDS011;29281;50.356;30.894;2022-09-03T03:38:40;8.05;;;5.22;;
43680;SDS011;29281;50.356;30.894;2022-09-03T03:39:46;7.96;;;5.07;;
43680;SDS011;29281;50.356;30.894;2022-09-03T03:40:49;13.88;;;5.06;;
43680;SDS011;29281;50.356;30.894;2022-09-03T03:41:53;10.31;;;5.47;;
43680;SDS011;29281;50.356;30.894;2022-09-03T03:43:01;7.43;;;5.07;;
43680;SDS011;29281;50.356;30.894;2022-09-03T03:44:12;8.70;;;4.93;;
43680;SDS011;29281;50.356;30.894;2022-09-03T03:45:17;8.71;;;4.68;;
43680;SDS011;29281;50.356;30.894;2022-09-03T03:46:22;9.01;;;4.93;;
43680;SDS011;29281;50.356;30.894;2022-09-03T03:47:30;10.03;;;5.37;;
43680;SDS011;29281;50.356;30.894;2022-09-03T03:48:35;7.89;;;4.98;;
43680;SDS011;29281;50.356;30.894;2022-09-03T03:49:40;12.58;;;5.79;;
43680;SDS011;29281;50.356;30.894;2022-09-03T03:50:44;11.58;;;5.41;;
43680;SDS011;29281;50.356;30.894;2022-09-03T03:51:47;8.46;;;4.96;;
43680;SDS011;29281;50.356;30.894;2022-09-03T03:52:50;9.91;;;4.96;;
43680;SDS011;29281;50.356;30.894;2022-09-03T03:53:55;7.53;;;5.07;;
43680;SDS011;29281;50.356;30.894;2022-09-03T03:55:01;12.03;;;5.39;;
43680;SDS011;29281;50.356;30.894;2022-09-03T04:21:07;13.19;;;7.38;;
43680;SDS011;29281;50.356;30.894;2022-09-03T04:22:10;13.29;;;5.61;;
43680;SDS011;29281;50.356;30.894;2022-09-03T04:23:13;10.21;;;5.19;;
43680;SDS011;29281;50.356;30.894;2022-09-03T04:24:17;9.04;;;5.08;;
43680;SDS011;29281;50.356;30.894;2022-09-03T04:25:21;9.60;;;5.14;;
43680;SDS011;29281;50.356;30.894;2022-09-03T04:26:27;8.96;;;5.17;;
43680;SDS011;29281;50.356;30.894;2022-09-03T04:27:35;10.11;;;5.12;;
43680;SDS011;29281;50.356;30.894;2022-09-03T04:28:39;8.56;;;4.83;;
43680;SDS011;29281;50.356;30.894;2022-09-03T04:29:46;12.11;;;5.14;;
43680;SDS011;29281;50.356;30.894;2022-09-03T04:30:50;10.52;;;5.34;;
43680;SDS011;29281;50.356;30.894;2022-09-03T04:31:59;8.51;;;4.83;;
43680;SDS011;29281;50.356;30.894;2022-09-03T04:33:23;8.56;;;4.55;;
43680;SDS011;29281;50.356;30.894;2022-09-03T04:34:27;10.26;;;4.90;;
43680;SDS011;29281;50.356;30.894;2022-09-03T04:35:31;8.00;;;4.89;;
43680;SDS011;29281;50.356;30.894;2022-09-03T04:36:37;8.41;;;4.92;;
43680;SDS011;29281;50.356;30.894;2022-09-03T04:37:40;9.90;;;4.72;;
43680;SDS011;29281;50.356;30.894;2022-09-03T04:38:44;9.02;;;4.48;;
43680;SDS011;29281;50.356;30.894;2022-09-03T04:39:50;7.45;;;4.78;;
43680;SDS011;29281;50.356;30.894;2022-09-03T04:40:55;8.36;;;4.86;;
43680;SDS011;29281;50.356;30.894;2022-09-03T04:42:01;8.82;;;4.81;;
43680;SDS011;29281;50.356;30.894;2022-09-03T04:43:04;7.72;;;4.94;;
43680;SDS011;29281;50.356;30.894;2022-09-03T04:44:07;7.68;;;4.62;;
43680;SDS011;29281;50.356;30.894;2022-09-03T04:45:11;10.13;;;4.78;;
43680;SDS011;29281;50.356;30.894;2022-09-03T04:46:16;10.04;;;5.17;;
43680;SDS011;29281;50.356;30.894;2022-09-03T04:47:21;9.28;;;5.16;;
43680;SDS011;29281;50.356;30.894;2022-09-03T04:48:29;11.63;;;6.09;;
43680;SDS011;29281;50.356;30.894;2022-09-03T04:49:35;11.24;;;6.18;;
43680;SDS011;29281;50.356;30.894;2022-09-03T04:50:39;8.37;;;5.84;;
43680;SDS011;29281;50.356;30.894;2022-09-03T04:51:45;11.43;;;6.48;;
43680;SDS011;29281;50.356;30.894;2022-09-03T04:52:48;12.70;;;6.08;;
43680;SDS011;29281;50.356;30.894;2022-09-03T04:53:54;9.80;;;5.87;;
43680;SDS011;29281;50.356;30.894;2022-09-03T04:55:00;9.23;;;5.97;;
43680;SDS011;29281;50.356;30.894;2022-09-03T04:56:14;10.31;;;6.04;;
43680;SDS011;29281;50.356;30.894;2022-09-03T04:57:22;10.02;;;5.75;;
43680;SDS011;29281;50.356;30.894;2022-09-03T04:58:25;11.11;;;5.97;;
43680;SDS011;29281;50.356;30.894;2022-09-03T04:59:29;12.71;;;6.20;;
43680;SDS011;29281;50.356;30.894;2022-09-03T05:00:37;9.44;;;5.38;;
43680;SDS011;29281;50.356;30.894;2022-09-03T05:01:41;9.07;;;5.85;;
43680;SDS011;29281;50.356;30.894;2022-09-03T05:02:46;9.68;;;5.06;;
43680;SDS011;29281;50.356;30.894;2022-09-03T05:03:50;10.74;;;5.93;;
43680;SDS011;29281;50.356;30.894;2022-09-03T05:04:55;7.95;;;5.38;;
43680;SDS011;29281;50.356;30.894;2022-09-03T05:05:58;9.69;;;5.69;;
43680;SDS011;29281;50.356;30.894;2022-09-03T05:07:03;9.17;;;6.19;;
43680;SDS011;29281;50.356;30.894;2022-09-03T05:08:07;8.88;;;5.60;;
43680;SDS011;29281;50.356;30.894;2022-09-03T05:09:16;8.94;;;5.56;;
43680;SDS011;29281;50.356;30.894;2022-09-03T05:10:19;8.97;;;5.69;;
43680;SDS011;29281;50.356;30.894;2022-09-03T05:11:22;10.06;;;5.54;;
43680;SDS011;29281;50.356;30.894;2022-09-03T05:12:28;9.64;;;5.73;;
43680;SDS011;29281;50.356;30.894;2022-09-03T05:13:34;8.13;;;5.26;;
43680;SDS011;29281;50.356;30.894;2022-09-03T05:14:41;7.58;;;5.23;;
43680;SDS011;29281;50.356;30.894;2022-09-03T05:15:46;8.96;;;5.42;;
43680;SDS011;29281;50.356;30.894;2022-09-03T05:16:50;10.72;;;5.67;;
43680;SDS011;29281;50.356;30.894;2022-09-03T05:17:56;10.62;;;5.36;;
43680;SDS011;29281;50.356;30.894;2022-09-03T05:19:05;11.14;;;5.88;;
43680;SDS011;29281;50.356;30.894;2022-09-03T05:20:10;6.93;;;5.09;;
43680;SDS011;29281;50.356;30.894;2022-09-03T05:21:15;9.94;;;5.84;;
43680;SDS011;29281;50.356;30.894;2022-09-03T05:22:20;7.98;;;5.66;;
43680;SDS011;29281;50.356;30.894;2022-09-03T05:23:24;9.19;;;5.49;;
43680;SDS011;29281;50.356;30.894;2022-09-03T05:24:27;9.86;;;5.98;;
43680;SDS011;29281;50.356;30.894;2022-09-03T05:25:31;8.89;;;5.42;;
43680;SDS011;29281;50.356;30.894;2022-09-03T05:26:36;9.51;;;5.68;;
43680;SDS011;29281;50.356;30.894;2022-09-03T05:27:42;8.12;;;5.81;;
43680;SDS011;29281;50.356;30.894;2022-09-03T05:28:45;9.58;;;5.46;;
43680;SDS011;29281;50.356;30.894;2022-09-03T05:29:51;10.67;;;5.37;;
43680;SDS011;29281;50.356;30.894;2022-09-03T05:31:12;8.59;;;5.32;;
43680;SDS011;29281;50.356;30.894;2022-09-03T05:32:14;11.07;;;5.26;;
43680;SDS011;29281;50.356;30.894;2022-09-03T05:33:21;8.47;;;4.88;;
43680;SDS011;29281;50.356;30.894;2022-09-03T05:34:27;8.82;;;5.08;;
43680;SDS011;29281;50.356;30.894;2022-09-03T05:35:31;7.64;;;5.05;;
43680;SDS011;29281;50.356;30.894;2022-09-03T05:36:44;7.67;;;5.30;;
43680;SDS011;29281;50.356;30.894;2022-09-03T05:37:49;8.32;;;5.37;;
43680;SDS011;29281;50.356;30.894;2022-09-03T05:38:54;9.03;;;4.96;;
43680;SDS011;29281;50.356;30.894;2022-09-03T05:40:03;9.13;;;4.78;;
43680;SDS011;29281;50.356;30.894;2022-09-03T05:41:10;7.72;;;4.73;;
43680;SDS011;29281;50.356;30.894;2022-09-03T05:42:14;7.31;;;4.71;;
43680;SDS011;29281;50.356;30.894;2022-09-03T05:43:19;8.02;;;4.57;;
43680;SDS011;29281;50.356;30.894;2022-09-03T05:44:23;7.78;;;4.48;;
43680;SDS011;29281;50.356;30.894;2022-09-03T05:45:27;7.67;;;4.14;;
43680;SDS011;29281;50.356;30.894;2022-09-03T05:46:32;11.54;;;5.01;;
43680;SDS011;29281;50.356;30.894;2022-09-03T05:47:37;8.01;;;4.92;;
43680;SDS011;29281;50.356;30.894;2022-09-03T05:48:41;7.68;;;4.63;;
43680;SDS011;29281;50.356;30.894;2022-09-03T05:49:47;7.64;;;4.65;;
43680;SDS011;29281;50.356;30.894;2022-09-03T05:51:02;11.42;;;4.76;;
43680;SDS011;29281;50.356;30.894;2022-09-03T05:52:03;8.21;;;4.92;;
43680;SDS011;29281;50.356;30.894;2022-09-03T05:53:07;7.88;;;4.59;;
43680;SDS011;29281;50.356;30.894;2022-09-03T05:54:10;9.00;;;4.90;;
43680;SDS011;29281;50.356;30.894;2022-09-03T05:55:15;8.16;;;4.99;;
43680;SDS011;29281;50.356;30.894;2022-09-03T05:56:23;6.52;;;4.68;;
43680;SDS011;29281;50.356;30.894;2022-09-03T05:57:29;7.08;;;4.48;;
43680;SDS011;29281;50.356;30.894;2022-09-03T05:58:33;6.46;;;4.42;;
43680;SDS011;29281;50.356;30.894;2022-09-03T05:59:38;9.25;;;4.08;;
43680;SDS011;29281;50.356;30.894;2022-09-03T06:00:45;7.31;;;4.37;;
43680;SDS011;29281;50.356;30.894;2022-09-03T06:01:48;6.99;;;4.44;;
43680;SDS011;29281;50.356;30.894;2022-09-03T06:02:54;8.13;;;4.17;;
43680;SDS011;29281;50.356;30.894;2022-09-03T06:04:05;8.19;;;4.40;;
43680;SDS011;29281;50.356;30.894;2022-09-03T06:05:10;6.19;;;3.86;;
43680;SDS011;29281;50.356;30.894;2022-09-03T06:06:17;6.77;;;3.82;;
43680;SDS011;29281;50.356;30.894;2022-09-03T06:07:20;6.41;;;3.65;;
43680;SDS011;29281;50.356;30.894;2022-09-03T06:08:24;7.98;;;4.11;;
43680;SDS011;29281;50.356;30.894;2022-09-03T06:09:27;6.63;;;3.96;;
43680;SDS011;29281;50.356;30.894;2022-09-03T06:10:30;7.22;;;4.53;;
43680;SDS011;29281;50.356;30.894;2022-09-03T06:11:35;7.16;;;4.16;;
43680;SDS011;29281;50.356;30.894;2022-09-03T06:12:43;8.86;;;4.19;;
43680;SDS011;29281;50.356;30.894;2022-09-03T06:13:53;7.79;;;3.89;;
43680;SDS011;29281;50.356;30.894;2022-09-03T06:15:02;7.07;;;4.18;;
43680;SDS011;29281;50.356;30.894;2022-09-03T06:16:09;7.99;;;3.71;;
43680;SDS011;29281;50.356;30.894;2022-09-03T06:17:12;6.90;;;3.75;;
43680;SDS011;29281;50.356;30.894;2022-09-03T06:18:17;6.42;;;3.53;;
43680;SDS011;29281;50.356;30.894;2022-09-03T06:19:20;7.39;;;3.83;;
43680;SDS011;29281;50.356;30.894;2022-09-03T06:20:24;6.04;;;3.49;;
43680;SDS011;29281;50.356;30.894;2022-09-03T06:21:31;5.61;;;3.77;;
43680;SDS011;29281;50.356;30.894;2022-09-03T06:22:35;6.95;;;3.50;;
43680;SDS011;29281;50.356;30.894;2022-09-03T06:23:39;6.80;;;3.66;;
43680;SDS011;29281;50.356;30.894;2022-09-03T06:24:45;5.18;;;3.17;;
43680;SDS011;29281;50.356;30.894;2022-09-03T06:26:02;7.61;;;3.96;;
43680;SDS011;29281;50.356;30.894;2022-09-03T06:27:08;6.59;;;3.60;;
43680;SDS011;29281;50.356;30.894;2022-09-03T06:28:16;5.78;;;3.82;;
43680;SDS011;29281;50.356;30.894;2022-09-03T06:29:21;5.18;;;3.54;;
43680;SDS011;29281;50.356;30.894;2022-09-03T06:30:24;4.98;;;3.39;;
43680;SDS011;29281;50.356;30.894;2022-09-03T06:31:28;6.62;;;3.70;;
43680;SDS011;29281;50.356;30.894;2022-09-03T06:32:32;6.58;;;3.59;;
43680;SDS011;29281;50.356;30.894;2022-09-03T06:33:37;10.26;;;3.97;;
43680;SDS011;29281;50.356;30.894;2022-09-03T06:34:44;5.94;;;3.69;;
43680;SDS011;29281;50.356;30.894;2022-09-03T06:35:47;8.52;;;4.08;;
43680;SDS011;29281;50.356;30.894;2022-09-03T06:36:57;7.79;;;3.81;;
43680;SDS011;29281;50.356;30.894;2022-09-03T06:38:02;8.91;;;3.92;;
43680;SDS011;29281;50.356;30.894;2022-09-03T06:39:06;6.98;;;3.80;;
43680;SDS011;29281;50.356;30.894;2022-09-03T06:40:10;7.71;;;3.80;;
43680;SDS011;29281;50.356;30.894;2022-09-03T06:41:20;6.23;;;3.76;;
43680;SDS011;29281;50.356;30.894;2022-09-03T06:42:30;5.97;;;3.74;;
43680;SDS011;29281;50.356;30.894;2022-09-03T06:43:36;8.94;;;4.01;;
43680;SDS011;29281;50.356;30.894;2022-09-03T06:44:41;10.97;;;3.73;;
43680;SDS011;29281;50.356;30.894;2022-09-03T06:45:57;6.47;;;4.07;;
43680;SDS011;29281;50.356;30.894;2022-09-03T06:47:00;7.28;;;3.69;;
43680;SDS011;29281;50.356;30.894;2022-09-03T06:48:04;7.40;;;3.85;;
43680;SDS011;29281;50.356;30.894;2022-09-03T06:49:09;10.12;;;3.93;;
43680;SDS011;29281;50.356;30.894;2022-09-03T06:50:14;6.59;;;3.76;;
43680;SDS011;29281;50.356;30.894;2022-09-03T06:51:21;7.79;;;4.56;;
43680;SDS011;29281;50.356;30.894;2022-09-03T06:52:25;6.58;;;3.66;;
43680;SDS011;29281;50.356;30.894;2022-09-03T06:53:35;9.56;;;4.24;;
43680;SDS011;29281;50.356;30.894;2022-09-03T06:54:41;5.73;;;4.11;;
43680;SDS011;29281;50.356;30.894;2022-09-03T06:55:51;6.96;;;4.04;;
43680;SDS011;29281;50.356;30.894;2022-09-03T06:56:57;10.33;;;4.07;;
43680;SDS011;29281;50.356;30.894;2022-09-03T06:58:01;7.47;;;4.12;;
43680;SDS011;29281;50.356;30.894;2022-09-03T06:59:04;9.21;;;4.17;;
43680;SDS011;29281;50.356;30.894;2022-09-03T07:00:14;7.28;;;3.69;;
43680;SDS011;29281;50.356;30.894;2022-09-03T07:01:21;6.79;;;4.14;;
43680;SDS011;29281;50.356;30.894;2022-09-03T07:02:28;6.49;;;3.88;;
43680;SDS011;29281;50.356;30.894;2022-09-03T07:03:32;8.53;;;4.29;;
43680;SDS011;29281;50.356;30.894;2022-09-03T07:04:38;7.92;;;4.35;;
43680;SDS011;29281;50.356;30.894;2022-09-03T07:05:43;6.13;;;3.81;;
43680;SDS011;29281;50.356;30.894;2022-09-03T07:06:48;7.00;;;4.32;;
43680;SDS011;29281;50.356;30.894;2022-09-03T07:07:51;8.41;;;4.42;;
43680;SDS011;29281;50.356;30.894;2022-09-03T07:08:58;6.33;;;3.54;;
43680;SDS011;29281;50.356;30.894;2022-09-03T07:10:02;8.86;;;3.88;;
43680;SDS011;29281;50.356;30.894;2022-09-03T07:11:06;7.26;;;3.59;;
43680;SDS011;29281;50.356;30.894;2022-09-03T07:12:13;8.03;;;4.28;;
43680;SDS011;29281;50.356;30.894;2022-09-03T07:13:20;6.76;;;3.71;;
43680;SDS011;29281;50.356;30.894;2022-09-03T07:14:24;6.69;;;3.82;;
43680;SDS011;29281;50.356;30.894;2022-09-03T07:15:31;5.99;;;3.94;;
43680;SDS011;29281;50.356;30.894;2022-09-03T07:16:36;10.25;;;4.26;;
43680;SDS011;29281;50.356;30.894;2022-09-03T07:17:40;8.53;;;3.93;;
43680;SDS011;29281;50.356;30.894;2022-09-03T07:18:44;6.04;;;4.01;;
43680;SDS011;29281;50.356;30.894;2022-09-03T07:19:48;6.51;;;3.45;;
43680;SDS011;29281;50.356;30.894;2022-09-03T07:20:51;6.71;;;3.81;;
43680;SDS011;29281;50.356;30.894;2022-09-03T07:22:05;6.32;;;4.03;;
43680;SDS011;29281;50.356;30.894;2022-09-03T07:23:09;8.22;;;4.21;;
43680;SDS011;29281;50.356;30.894;2022-09-03T07:24:14;6.58;;;4.17;;
43680;SDS011;29281;50.356;30.894;2022-09-03T07:25:19;6.39;;;4.27;;
43680;SDS011;29281;50.356;30.894;2022-09-03T07:26:27;7.32;;;4.60;;
43680;SDS011;29281;50.356;30.894;2022-09-03T07:27:33;7.66;;;4.15;;
43680;SDS011;29281;50.356;30.894;2022-09-03T07:28:37;9.37;;;4.70;;
43680;SDS011;29281;50.356;30.894;2022-09-03T07:29:42;6.78;;;4.65;;
43680;SDS011;29281;50.356;30.894;2022-09-03T07:30:46;8.78;;;4.57;;
43680;SDS011;29281;50.356;30.894;2022-09-03T07:31:50;6.92;;;4.17;;
43680;SDS011;29281;50.356;30.894;2022-09-03T07:32:54;5.95;;;4.04;;
43680;SDS011;29281;50.356;30.894;2022-09-03T07:33:59;8.42;;;4.14;;
43680;SDS011;29281;50.356;30.894;2022-09-03T07:35:06;7.03;;;4.28;;
43680;SDS011;29281;50.356;30.894;2022-09-03T07:36:11;7.26;;;4.05;;
43680;SDS011;29281;50.356;30.894;2022-09-03T07:37:20;7.18;;;4.21;;
43680;SDS011;29281;50.356;30.894;2022-09-03T07:38:23;8.41;;;4.17;;
43680;SDS011;29281;50.356;30.894;2022-09-03T07:39:26;7.72;;;4.53;;
43680;SDS011;29281;50.356;30.894;2022-09-03T07:40:30;7.97;;;4.33;;
43680;SDS011;29281;50.356;30.894;2022-09-03T07:41:36;8.17;;;4.17;;
43680;SDS011;29281;50.356;30.894;2022-09-03T07:42:41;7.75;;;3.95;;
43680;SDS011;29281;50.356;30.894;2022-09-03T07:43:45;7.25;;;4.22;;
43680;SDS011;29281;50.356;30.894;2022-09-03T07:44:49;9.14;;;4.28;;
43680;SDS011;29281;50.356;30.894;2022-09-03T07:45:52;7.07;;;4.22;;
43680;SDS011;29281;50.356;30.894;2022-09-03T07:46:55;9.10;;;4.16;;
43680;SDS011;29281;50.356;30.894;2022-09-03T07:47:59;6.94;;;3.92;;
43680;SDS011;29281;50.356;30.894;2022-09-03T07:49:04;8.28;;;4.21;;
43680;SDS011;29281;50.356;30.894;2022-09-03T07:50:13;10.66;;;4.23;;
43680;SDS011;29281;50.356;30.894;2022-09-03T07:51:17;8.24;;;4.36;;
43680;SDS011;29281;50.356;30.894;2022-09-03T07:52:23;6.46;;;4.02;;
43680;SDS011;29281;50.356;30.894;2022-09-03T07:53:27;5.73;;;3.80;;
43680;SDS011;29281;50.356;30.894;2022-09-03T07:54:31;5.62;;;3.44;;
43680;SDS011;29281;50.356;30.894;2022-09-03T07:55:34;7.30;;;3.71;;
43680;SDS011;29281;50.356;30.894;2022-09-03T07:56:39;6.66;;;3.66;;
43680;SDS011;29281;50.356;30.894;2022-09-03T07:57:43;6.04;;;3.62;;
43680;SDS011;29281;50.356;30.894;2022-09-03T07:58:46;7.33;;;3.66;;
43680;SDS011;29281;50.356;30.894;2022-09-03T07:59:50;7.41;;;3.80;;
43680;SDS011;29281;50.356;30.894;2022-09-03T08:00:56;6.02;;;3.56;;
43680;SDS011;29281;50.356;30.894;2022-09-03T08:02:00;8.62;;;3.73;;
43680;SDS011;29281;50.356;30.894;2022-09-03T08:03:05;7.45;;;3.59;;
43680;SDS011;29281;50.356;30.894;2022-09-03T08:04:11;6.63;;;3.31;;